Industry, Kansas
Current Conditions -  °F | °C
As of 12:58 PM on Tuesday 21 Oct 2014 (Local Time) from KFRI Reporting Station
Clear Clear  
Wind Chill: 76°   Ceiling: Unl
Heat Index: 76°   Visibility: 10mi
Dew Point: 42°   Wind: 8mph
Humidity: 30%   Direction: 150°SSE
Pressure: 30.09"   Gusts: NA
Location:  39.0421°N, 97.1702°W
Report Text: KFRI 211758Z AUTO 15007KT 10SM CLR 24/06 A3009 RMK AO2 SLP185 60000 T02440057 10244 20033 57012
Loading
Personal Weather Stations






























Interactive Weather Map New forecast layout! Learn more

10-Day Weather Forecast

Advertisements
Track Severe Weather on mobile